Time;durP1;ratioP1;P1;durP2;ratioP2;P2;SDS_P1;SDS_P2;PMS_P1;PMS_P2;Temp;Humidity;BMP_temperature;BMP_pressure;BME280_temperature;BME280_humidity;BME280_pressure;Samples;Min_cycle;Max_cycle;Signal;HPM_P1;HPM_P2
2023/05/29 00:00:20;;;;;;;9.33;5.57;;;10.20;29.50;;;;;;5066389;28;46185;-66
2023/05/29 00:02:47;;;;;;;13.50;6.20;;;10.10;29.60;;;;;;5065101;28;46586;-65
2023/05/29 00:05:13;;;;;;;12.37;5.73;;;10.00;29.80;;;;;;5066080;28;46459;-66
2023/05/29 00:07:40;;;;;;;10.40;5.67;;;9.90;30.80;;;;;;5066724;28;46494;-65
2023/05/29 00:10:07;;;;;;;13.07;6.63;;;9.80;31.10;;;;;;5067149;28;46609;-65
2023/05/29 00:12:33;;;;;;;16.80;6.40;;;9.80;31.20;;;;;;5064539;28;45799;-65
2023/05/29 00:14:59;;;;;;;13.47;6.67;;;9.70;31.20;;;;;;5066103;28;46289;-66
2023/05/29 00:17:24;;;;;;;14.80;6.90;;;9.70;31.40;;;;;;5065728;28;47036;-67
2023/05/29 00:19:50;;;;;;;12.47;5.90;;;9.70;31.20;;;;;;5063151;28;46441;-66
2023/05/29 00:22:16;;;;;;;15.43;7.07;;;9.80;31.40;;;;;;5064307;28;46288;-66
2023/05/29 00:24:42;;;;;;;17.17;6.90;;;9.70;31.40;;;;;;5064134;28;46482;-66
2023/05/29 00:27:08;;;;;;;10.00;5.87;;;9.70;31.40;;;;;;5068227;28;47902;-66
2023/05/29 00:29:35;;;;;;;9.53;5.70;;;9.70;31.60;;;;;;5062975;28;45837;-65
2023/05/29 00:32:01;;;;;;;13.70;6.00;;;9.60;31.70;;;;;;5067607;28;46473;-66
2023/05/29 00:34:27;;;;;;;8.90;5.23;;;9.60;32.00;;;;;;5063271;28;46756;-66
2023/05/29 00:36:54;;;;;;;15.80;6.73;;;9.50;32.20;;;;;;5068274;28;46243;-65
2023/05/29 00:39:20;;;;;;;14.30;5.33;;;9.40;32.40;;;;;;5065293;28;45872;-65
2023/05/29 00:41:46;;;;;;;16.03;6.00;;;9.40;32.50;;;;;;5063683;28;45911;-66
2023/05/29 00:44:11;;;;;;;20.03;5.67;;;9.30;32.50;;;;;;5064343;28;46299;-66
2023/05/29 00:46:37;;;;;;;11.80;6.17;;;9.30;32.60;;;;;;5065534;28;46396;-66
2023/05/29 00:49:05;;;;;;;13.37;5.47;;;9.30;32.50;;;;;;5065595;28;46420;-66
2023/05/29 00:51:32;;;;;;;20.97;6.37;;;9.30;32.70;;;;;;5064244;28;46526;-66
2023/05/29 00:53:58;;;;;;;14.20;5.90;;;9.30;32.60;;;;;;5067248;28;46487;-65
2023/05/29 00:56:24;;;;;;;8.20;5.27;;;9.40;32.50;;;;;;5073182;28;46624;-65
2023/05/29 00:58:52;;;;;;;13.80;6.40;;;9.40;32.60;;;;;;5067639;28;46370;-66
2023/05/29 01:01:18;;;;;;;15.23;6.27;;;9.30;32.60;;;;;;5065562;27;46487;-66
2023/05/29 01:03:45;;;;;;;10.13;5.60;;;9.30;32.90;;;;;;5069761;28;46390;-66
2023/05/29 01:06:11;;;;;;;13.30;6.70;;;9.20;32.90;;;;;;5069272;28;47116;-66
2023/05/29 01:08:37;;;;;;;12.37;6.40;;;9.20;33.20;;;;;;5068226;28;46466;-66
2023/05/29 01:11:32;;;;;;;8.97;5.70;;;9.20;33.50;;;;;;5066139;28;46763;-66
2023/05/29 01:14:02;;;;;;;11.33;5.80;;;9.10;33.50;;;;;;5061831;28;46498;-66
2023/05/29 01:16:44;;;;;;;11.30;6.50;;;9.20;33.40;;;;;;5064555;27;46364;-66
2023/05/29 01:19:55;;;;;;;11.70;6.10;;;9.20;33.30;;;;;;5069053;28;46559;-66
2023/05/29 01:23:05;;;;;;;9.13;6.00;;;9.30;33.60;;;;;;5069943;28;46598;-66
2023/05/29 01:25:34;;;;;;;11.17;6.40;;;9.30;33.30;;;;;;5070132;28;46450;-65
2023/05/29 01:28:03;;;;;;;11.97;6.53;;;9.30;32.90;;;;;;5066403;28;46784;-66
2023/05/29 01:30:32;;;;;;;12.23;6.00;;;9.30;33.00;;;;;;5070012;28;46373;-65
2023/05/29 01:32:58;;;;;;;13.70;6.50;;;9.30;33.20;;;;;;5072348;28;46471;-65
2023/05/29 01:35:25;;;;;;;12.53;6.13;;;9.30;33.30;;;;;;5071287;28;46404;-66
2023/05/29 01:37:51;;;;;;;11.57;6.40;;;9.30;33.40;;;;;;5067071;27;46838;-66
2023/05/29 01:40:17;;;;;;;9.80;5.53;;;9.30;33.40;;;;;;5071677;28;46471;-66
2023/05/29 01:42:43;;;;;;;9.63;5.20;;;9.20;33.50;;;;;;5065746;28;46448;-66
2023/05/29 01:45:10;;;;;;;9.90;5.10;;;9.20;33.70;;;;;;5068376;28;46484;-66
2023/05/29 01:47:35;;;;;;;13.87;5.80;;;9.10;33.90;;;;;;5066114;27;46695;-66
2023/05/29 01:50:04;;;;;;;9.60;5.30;;;9.00;34.40;;;;;;5066377;28;46445;-66
2023/05/29 01:52:30;;;;;;;7.97;5.07;;;8.90;34.60;;;;;;5070929;28;45782;-66
2023/05/29 01:54:55;;;;;;;7.87;5.00;;;8.80;34.70;;;;;;5065310;28;47051;-67
2023/05/29 01:57:21;;;;;;;9.83;4.93;;;8.70;34.90;;;;;;5072744;28;46875;-67
2023/05/29 01:59:49;;;;;;;9.97;5.80;;;8.70;35.00;;;;;;5065559;28;46388;-67
2023/05/29 02:02:14;;;;;;;13.80;5.80;;;8.70;35.10;;;;;;5065906;28;45776;-66
2023/05/29 02:04:40;;;;;;;11.80;5.87;;;8.70;35.20;;;;;;5064748;28;46448;-66
2023/05/29 02:07:06;;;;;;;11.60;5.47;;;8.70;35.30;;;;;;5069052;28;46392;-64
2023/05/29 02:09:35;;;;;;;13.47;5.80;;;8.60;35.30;;;;;;5068745;27;46309;-65
2023/05/29 02:12:01;;;;;;;14.00;5.80;;;8.70;35.20;;;;;;5066587;27;46644;-65
2023/05/29 02:14:27;;;;;;;12.30;6.37;;;8.70;35.10;;;;;;5068405;28;46563;-64
2023/05/29 02:16:53;;;;;;;12.60;6.00;;;8.70;35.10;;;;;;5066433;28;46130;-65
2023/05/29 02:19:19;;;;;;;11.57;6.20;;;8.70;35.10;;;;;;5065399;28;46375;-65
2023/05/29 02:21:46;;;;;;;14.73;7.60;;;8.70;35.20;;;;;;5065473;27;46563;-66
2023/05/29 02:24:12;;;;;;;13.67;6.53;;;8.70;35.40;;;;;;5072003;27;46641;-65
2023/05/29 02:26:38;;;;;;;18.23;6.50;;;8.70;35.40;;;;;;5068814;28;47190;-66
2023/05/29 02:29:05;;;;;;;13.57;6.27;;;8.70;35.40;;;;;;5066343;28;46483;-65
2023/05/29 02:31:31;;;;;;;12.33;6.10;;;8.70;35.50;;;;;;5072041;28;46411;-65
2023/05/29 02:33:57;;;;;;;10.83;6.50;;;8.70;35.50;;;;;;5068761;27;46304;-65
2023/05/29 02:36:22;;;;;;;14.60;7.17;;;8.60;35.60;;;;;;5071447;28;47183;-66
2023/05/29 02:38:48;;;;;;;11.50;6.30;;;8.60;35.00;;;;;;5090335;22;46372;31
2023/05/29 02:41:14;;;;;;;11.70;6.50;;;8.60;36.50;;;;;;5011974;28;46747;-84
2023/05/29 02:43:39;;;;;;;13.97;6.40;;;8.50;36.10;;;;;;5006956;28;46498;-83
2023/05/29 02:46:05;;;;;;;13.00;6.03;;;8.40;36.20;;;;;;5018870;28;47018;-86
2023/05/29 02:48:31;;;;;;;17.40;6.03;;;8.30;36.50;;;;;;5020550;28;46438;-83
2023/05/29 02:50:56;;;;;;;13.33;5.90;;;8.20;36.90;;;;;;5036012;28;46625;-86
2023/05/29 02:53:22;;;;;;;9.00;5.50;;;8.10;37.00;;;;;;5040563;28;46444;-85
2023/05/29 02:55:49;;;;;;;9.53;5.33;;;8.10;37.00;;;;;;5041110;28;46482;-84
2023/05/29 02:58:16;;;;;;;11.07;6.00;;;8.10;37.00;;;;;;5042047;28;45826;-85
2023/05/29 03:00:42;;;;;;;12.50;6.27;;;8.10;37.00;;;;;;5044230;28;47270;-85
2023/05/29 03:03:07;;;;;;;8.20;4.83;;;8.10;36.90;;;;;;5017165;28;46548;-83
2023/05/29 03:05:33;;;;;;;19.63;6.60;;;8.10;36.90;;;;;;5031892;28;46925;-84
2023/05/29 03:07:58;;;;;;;11.93;6.30;;;8.10;36.90;;;;;;5029144;28;46780;-83
2023/05/29 03:10:24;;;;;;;13.80;6.10;;;8.10;36.90;;;;;;5023994;28;46596;-83
2023/05/29 03:12:51;;;;;;;10.00;6.20;;;8.10;37.10;;;;;;5029735;28;46756;-83
2023/05/29 03:15:19;;;;;;;12.03;5.80;;;8.00;37.20;;;;;;5031181;28;46443;-81
2023/05/29 03:17:48;;;;;;;9.23;5.47;;;8.10;37.20;;;;;;5029752;28;46681;-83
2023/05/29 03:20:15;;;;;;;10.17;5.70;;;8.10;37.20;;;;;;5014071;28;46448;-83
2023/05/29 03:22:41;;;;;;;12.37;6.33;;;8.10;37.00;;;;;;5034735;28;46380;-83
2023/05/29 03:25:07;;;;;;;11.93;6.40;;;8.10;36.90;;;;;;5028438;28;47907;-84
2023/05/29 03:27:33;;;;;;;14.70;6.73;;;8.10;37.00;;;;;;5021852;28;46456;-82
2023/05/29 03:29:59;;;;;;;12.40;6.67;;;8.20;37.10;;;;;;5011729;28;46490;-84
2023/05/29 03:32:24;;;;;;;13.20;6.30;;;8.20;37.10;;;;;;5030078;28;46007;-83
2023/05/29 03:34:50;;;;;;;14.73;6.07;;;8.20;37.10;;;;;;5021149;28;48082;-81
2023/05/29 03:37:16;;;;;;;12.50;6.70;;;8.20;37.20;;;;;;5031675;28;46285;-82
2023/05/29 03:39:42;;;;;;;12.97;6.37;;;8.30;38.30;;;;;;5014509;28;46676;-84
2023/05/29 03:42:07;;;;;;;10.53;6.10;;;8.30;36.90;;;;;;5029015;28;46361;-81
2023/05/29 03:44:33;;;;;;;12.53;6.00;;;8.40;36.90;;;;;;5029617;28;46371;-83
2023/05/29 03:46:59;;;;;;;9.80;5.93;;;8.50;36.90;;;;;;5033843;28;46688;-83
2023/05/29 03:49:24;;;;;;;10.37;6.13;;;8.50;36.70;;;;;;5024813;28;46358;-83
2023/05/29 03:51:50;;;;;;;9.13;5.40;;;8.60;36.80;;;;;;5029953;28;46615;-83
2023/05/29 03:54:16;;;;;;;10.93;6.23;;;8.60;36.90;;;;;;5030089;28;46451;-84
2023/05/29 03:56:42;;;;;;;17.20;5.40;;;8.60;36.80;;;;;;5029834;28;46342;-82
2023/05/29 03:59:08;;;;;;;15.47;6.50;;;8.60;36.90;;;;;;5024010;28;46482;-82
2023/05/29 04:01:34;;;;;;;12.13;5.90;;;8.70;36.90;;;;;;5032642;28;46756;-82
2023/05/29 04:04:00;;;;;;;18.03;6.00;;;8.80;36.70;;;;;;5021102;28;48886;-83
2023/05/29 04:06:25;;;;;;;10.20;5.97;;;8.90;36.70;;;;;;5031876;28;46430;-83
2023/05/29 04:08:51;;;;;;;10.97;4.80;;;8.90;36.40;;;;;;5034019;28;46279;-82
2023/05/29 04:11:17;;;;;;;8.67;5.20;;;9.00;36.40;;;;;;5032577;28;46397;-83
2023/05/29 04:13:42;;;;;;;12.00;5.30;;;9.10;36.20;;;;;;5032896;28;46337;-84
2023/05/29 04:16:08;;;;;;;10.80;5.20;;;9.30;36.10;;;;;;5031857;28;46377;-85
2023/05/29 04:18:34;;;;;;;11.30;5.57;;;9.40;35.80;;;;;;5023309;28;46381;-82
2023/05/29 04:21:00;;;;;;;12.50;4.93;;;9.50;35.70;;;;;;5031691;28;46364;-82
2023/05/29 04:23:25;;;;;;;10.13;5.63;;;9.60;35.50;;;;;;5029813;28;47642;-83
2023/05/29 04:25:52;;;;;;;12.37;6.00;;;9.70;35.40;;;;;;5033491;28;46503;-83
2023/05/29 04:28:21;;;;;;;9.80;5.60;;;9.80;35.30;;;;;;5024838;28;46401;-82
2023/05/29 04:30:47;;;;;;;11.70;5.80;;;10.00;34.20;;;;;;5032341;28;46318;-84
2023/05/29 04:33:14;;;;;;;11.30;6.13;;;10.20;35.20;;;;;;5034734;28;47095;-82
2023/05/29 04:35:42;;;;;;;10.57;5.60;;;10.30;33.70;;;;;;5019334;28;46462;-80
2023/05/29 04:38:09;;;;;;;14.10;5.90;;;10.50;33.50;;;;;;5020438;28;46460;-81
2023/05/29 04:40:36;;;;;;;9.27;5.80;;;10.60;33.30;;;;;;5019048;28;46378;-83
2023/05/29 04:43:04;;;;;;;9.10;5.70;;;10.80;32.90;;;;;;5018714;28;48172;-84
2023/05/29 04:45:30;;;;;;;10.93;5.60;;;11.70;32.00;;;;;;5039634;28;46747;-84
2023/05/29 04:47:56;;;;;;;10.20;5.40;;;13.10;31.00;;;;;;5029276;28;47492;-84
2023/05/29 04:50:23;;;;;;;8.03;4.73;;;14.50;29.30;;;;;;5041108;28;46663;-83
2023/05/29 04:52:48;;;;;;;10.60;5.93;;;15.50;27.30;;;;;;5035449;28;46762;-81
2023/05/29 04:55:14;;;;;;;11.50;6.30;;;16.50;26.00;;;;;;5027856;28;45813;-82
2023/05/29 04:57:40;;;;;;;12.30;5.83;;;17.60;24.40;;;;;;5011751;28;46498;-81
2023/05/29 05:00:08;;;;;;;15.07;7.10;;;18.30;23.20;;;;;;5021210;28;46337;-81
2023/05/29 05:02:33;;;;;;;12.17;7.50;;;19.00;21.70;;;;;;5017877;28;48466;-81
2023/05/29 05:04:59;;;;;;;12.60;7.43;;;19.80;20.60;;;;;;5031064;28;46465;-81
2023/05/29 05:07:25;;;;;;;13.70;6.80;;;20.40;19.40;;;;;;5011477;28;46640;-82
2023/05/29 05:09:50;;;;;;;12.67;6.70;;;21.10;18.10;;;;;;5010512;28;46862;-80
2023/05/29 05:12:16;;;;;;;13.13;6.37;;;21.70;16.90;;;;;;5029816;28;46555;-82
2023/05/29 05:14:42;;;;;;;14.00;6.90;;;21.90;16.10;;;;;;5031939;28;46497;-81
2023/05/29 05:17:07;;;;;;;16.90;7.10;;;22.10;15.80;;;;;;5012568;28;46438;-81
2023/05/29 05:19:33;;;;;;;13.10;7.23;;;22.50;15.10;;;;;;5015148;28;46349;-82
2023/05/29 05:21:58;;;;;;;12.43;6.67;;;22.90;14.30;;;;;;5029244;28;47155;-82
2023/05/29 05:24:24;;;;;;;14.90;6.83;;;23.20;13.60;;;;;;5030703;28;46304;-82
2023/05/29 05:26:49;;;;;;;16.90;6.83;;;23.70;12.70;;;;;;5032976;28;46322;-82
2023/05/29 05:29:15;;;;;;;14.40;7.10;;;24.20;11.50;;;;;;5031700;28;46387;-82
2023/05/29 05:31:41;;;;;;;13.00;6.77;;;24.60;10.60;;;;;;5021135;28;48322;-82
2023/05/29 05:34:07;;;;;;;13.90;7.00;;;24.90;9.90;;;;;;5014750;28;46314;-82
2023/05/29 05:36:32;;;;;;;11.63;6.87;;;25.40;8.90;;;;;;5011622;28;46497;-83
2023/05/29 05:38:58;;;;;;;12.73;6.63;;;26.00;7.50;;;;;;5027943;28;46691;-81
2023/05/29 05:41:23;;;;;;;10.70;6.63;;;26.40;7.60;;;;;;5021001;28;48241;-83
2023/05/29 05:43:50;;;;;;;15.47;7.37;;;26.70;5.60;;;;;;5029807;28;46361;-83
2023/05/29 05:46:17;;;;;;;12.27;7.10;;;27.10;4.60;;;;;;5027784;28;46778;-83
2023/05/29 05:48:42;;;;;;;14.27;7.17;;;27.20;4.20;;;;;;5031247;28;46433;-82
2023/05/29 05:51:08;;;;;;;12.43;6.50;;;27.30;3.10;;;;;;5024941;28;48932;-82
2023/05/29 05:53:33;;;;;;;14.43;7.10;;;26.90;4.40;;;;;;5035125;28;46378;-81
2023/05/29 05:56:00;;;;;;;12.50;6.90;;;25.80;5.80;;;;;;5032964;28;46373;-81
2023/05/29 05:58:25;;;;;;;12.00;6.43;;;25.20;6.70;;;;;;5033516;28;46541;-82
2023/05/29 06:00:52;;;;;;;16.20;7.30;;;24.00;8.70;;;;;;5012861;28;47390;-82
2023/05/29 06:03:18;;;;;;;17.90;7.20;;;22.80;11.60;;;;;;5034644;28;46372;-83
2023/05/29 06:05:43;;;;;;;9.53;6.10;;;22.10;12.80;;;;;;5031878;28;46246;-82
2023/05/29 06:08:09;;;;;;;12.77;7.10;;;21.90;13.00;;;;;;5019537;28;47190;-83
2023/05/29 06:10:35;;;;;;;12.27;6.73;;;21.40;13.70;;;;;;5032572;28;47405;-83
2023/05/29 06:13:01;;;;;;;13.30;7.40;;;21.00;14.20;;;;;;5035982;28;46326;-83
2023/05/29 06:15:27;;;;;;;17.33;7.53;;;20.60;14.90;;;;;;5034371;28;45800;-83
2023/05/29 06:17:55;;;;;;;11.87;6.60;;;20.20;15.20;;;;;;5037904;28;46319;-84
2023/05/29 06:20:21;;;;;;;17.03;6.70;;;20.00;14.60;;;;;;5039646;28;48188;-82
2023/05/29 06:22:50;;;;;;;16.03;6.40;;;19.80;14.50;;;;;;5034390;28;46215;-82
2023/05/29 06:25:19;;;;;;;10.13;6.77;;;19.70;13.90;;;;;;5024750;28;46333;-85
2023/05/29 06:27:45;;;;;;;14.93;7.50;;;19.40;13.50;;;;;;5023507;28;46450;-83
2023/05/29 06:30:12;;;;;;;15.87;7.80;;;19.00;14.00;;;;;;5033755;28;47494;-82
2023/05/29 06:32:38;;;;;;;13.20;7.40;;;19.00;14.00;;;;;;5018953;28;46555;-82
2023/05/29 06:35:06;;;;;;;19.40;6.23;;;19.00;13.70;;;;;;5042153;28;46509;-85
2023/05/29 06:37:31;;;;;;;11.40;7.03;;;19.10;13.60;;;;;;5043666;28;46646;-82
2023/05/29 06:39:57;;;;;;;12.77;6.30;;;19.20;13.50;;;;;;5045459;28;46651;-85
2023/05/29 06:42:22;;;;;;;14.07;6.83;;;19.40;13.40;;;;;;5035001;28;46446;-81
2023/05/29 06:44:48;;;;;;;14.47;7.53;;;19.20;13.30;;;;;;5037640;28;46522;-83
2023/05/29 06:47:13;;;;;;;15.13;6.80;;;19.20;13.40;;;;;;5038078;28;45997;-79
2023/05/29 06:49:39;;;;;;;12.97;7.40;;;19.40;13.20;;;;;;5025380;28;48196;-83
2023/05/29 06:52:05;;;;;;;13.93;6.80;;;19.20;13.40;;;;;;5035894;28;46814;-81
2023/05/29 06:54:30;;;;;;;16.13;7.30;;;19.00;13.90;;;;;;5033477;28;46470;-82
2023/05/29 06:56:56;;;;;;;13.77;7.00;;;19.00;14.00;;;;;;5032594;28;46375;-81
2023/05/29 06:59:22;;;;;;;16.27;7.43;;;19.10;14.00;;;;;;5018440;28;49339;-83
2023/05/29 07:01:48;;;;;;;13.03;7.00;;;19.20;14.00;;;;;;5033305;28;46767;-80
2023/05/29 07:04:13;;;;;;;12.93;7.00;;;19.30;13.90;;;;;;5033049;28;46345;-83
2023/05/29 07:06:39;;;;;;;13.47;7.70;;;19.50;13.80;;;;;;5031735;28;46468;-81
2023/05/29 07:09:04;;;;;;;12.80;6.57;;;19.70;13.90;;;;;;5021730;28;48235;-82
2023/05/29 07:11:30;;;;;;;16.87;7.20;;;19.80;14.00;;;;;;5033645;28;46428;-78
2023/05/29 07:13:56;;;;;;;12.20;7.47;;;20.00;13.80;;;;;;5029630;28;46344;-82
2023/05/29 07:16:21;;;;;;;16.43;7.30;;;20.10;13.70;;;;;;5015818;28;46525;-84
2023/05/29 07:18:47;;;;;;;17.00;6.50;;;19.90;14.00;;;;;;5033891;28;47118;-84
2023/05/29 07:21:13;;;;;;;14.17;6.37;;;19.70;14.30;;;;;;5031793;28;46412;-81
2023/05/29 07:23:40;;;;;;;11.23;6.30;;;19.70;14.60;;;;;;5033213;28;46625;-81
2023/05/29 07:26:05;;;;;;;15.93;7.03;;;19.70;14.80;;;;;;5022852;28;45922;-82
2023/05/29 07:28:31;;;;;;;10.37;6.20;;;19.90;14.70;;;;;;5025303;28;48088;-81
2023/05/29 07:30:57;;;;;;;12.03;6.47;;;19.90;14.60;;;;;;5030389;28;46317;-82
2023/05/29 07:33:23;;;;;;;19.43;6.67;;;19.60;14.80;;;;;;5024888;28;46442;-82
2023/05/29 07:35:49;;;;;;;15.67;6.53;;;19.50;14.90;;;;;;5031928;28;47326;-81
2023/05/29 07:38:15;;;;;;;14.17;6.97;;;19.40;15.20;;;;;;5034735;28;46916;-82
2023/05/29 07:40:41;;;;;;;12.00;5.97;;;19.60;15.10;;;;;;5029951;28;46495;-81
2023/05/29 07:43:06;;;;;;;10.17;6.20;;;19.80;14.70;;;;;;5034436;28;45855;-81
2023/05/29 07:45:32;;;;;;;14.77;6.30;;;20.10;14.60;;;;;;5032171;28;46463;-80
2023/05/29 07:47:58;;;;;;;12.20;6.80;;;19.90;14.60;;;;;;5039336;28;46433;-81
2023/05/29 07:50:23;;;;;;;25.23;7.80;;;19.90;14.80;;;;;;5035401;28;46519;-81
2023/05/29 07:52:49;;;;;;;16.20;6.93;;;19.90;14.90;;;;;;5038983;28;46377;-81
2023/05/29 07:55:14;;;;;;;14.27;7.17;;;19.80;14.90;;;;;;5036417;28;46235;-82
2023/05/29 07:57:40;;;;;;;10.53;6.10;;;20.00;14.60;;;;;;5030658;28;47331;-81
2023/05/29 08:00:07;;;;;;;12.70;6.50;;;20.00;14.70;;;;;;5032102;28;46958;-81
2023/05/29 08:02:34;;;;;;;10.20;5.80;;;20.20;14.50;;;;;;5015475;28;46201;-79
2023/05/29 08:04:59;;;;;;;11.70;5.93;;;20.40;14.30;;;;;;5032382;28;46604;-80
2023/05/29 08:07:28;;;;;;;11.90;6.40;;;20.60;14.10;;;;;;5033421;28;46400;-80
2023/05/29 08:09:53;;;;;;;11.60;5.70;;;20.60;14.00;;;;;;5035552;28;46405;-83
2023/05/29 08:12:19;;;;;;;14.70;6.67;;;20.80;13.50;;;;;;5024204;28;46432;-78
2023/05/29 08:14:44;;;;;;;10.70;4.87;;;20.90;13.00;;;;;;5037841;28;46401;-82
2023/05/29 08:17:10;;;;;;;13.33;6.53;;;20.90;12.70;;;;;;5035174;28;46244;-85
2023/05/29 08:19:36;;;;;;;15.07;5.57;;;20.90;12.90;;;;;;5035727;28;46323;-83
2023/05/29 08:22:01;;;;;;;10.40;5.77;;;21.30;12.30;;;;;;5028717;28;45825;-82
2023/05/29 08:24:27;;;;;;;13.70;5.43;;;21.40;12.30;;;;;;5014375;28;45939;-83
2023/05/29 08:26:53;;;;;;;12.73;5.40;;;21.50;12.40;;;;;;5037646;28;47450;-84
2023/05/29 08:29:19;;;;;;;10.13;5.30;;;21.40;12.30;;;;;;5017124;28;46681;-84
2023/05/29 08:31:45;;;;;;;9.07;5.50;;;21.50;12.20;;;;;;5028753;28;46581;-80
2023/05/29 08:34:11;;;;;;;10.43;5.40;;;21.60;11.80;;;;;;5028313;28;46838;-82
2023/05/29 08:36:37;;;;;;;9.10;4.90;;;21.60;11.30;;;;;;5030712;28;47162;-81
2023/05/29 08:39:02;;;;;;;12.90;5.30;;;21.60;11.10;;;;;;5012855;28;46449;-83
2023/05/29 08:41:41;;;;;;;11.13;5.10;;;21.40;10.90;;;;;;5035389;28;45853;-79
2023/05/29 08:44:11;;;;;;;9.57;5.07;;;21.20;11.00;;;;;;5029136;28;46436;-81
2023/05/29 08:46:38;;;;;;;16.07;5.73;;;21.20;11.70;;;;;;5029300;28;47164;-79
2023/05/29 08:49:04;;;;;;;8.97;5.13;;;21.20;11.30;;;;;;5011201;28;46349;-83
2023/05/29 08:51:36;;;;;;;11.23;4.90;;;21.20;11.20;;;;;;5022813;28;46479;-78
2023/05/29 08:54:02;;;;;;;8.37;5.03;;;21.10;10.90;;;;;;5030420;28;46447;-79
2023/05/29 08:56:28;;;;;;;17.23;5.70;;;21.30;11.00;;;;;;5018580;28;47584;-79
2023/05/29 08:58:54;;;;;;;9.70;5.17;;;21.40;10.80;;;;;;5029966;28;46734;-78
2023/05/29 09:01:22;;;;;;;11.80;5.07;;;21.60;10.60;;;;;;5029123;28;46464;-79
2023/05/29 09:03:47;;;;;;;14.47;5.90;;;21.70;10.20;;;;;;5029980;28;46585;-80
2023/05/29 09:06:13;;;;;;;9.40;4.60;;;21.80;9.80;;;;;;5027567;28;46385;-81
2023/05/29 09:08:39;;;;;;;10.43;4.70;;;21.90;9.70;;;;;;5022284;28;46444;-79
2023/05/29 09:11:05;;;;;;;16.13;5.07;;;22.00;9.70;;;;;;5030291;28;47180;-79
2023/05/29 09:13:31;;;;;;;8.77;4.77;;;22.20;9.60;;;;;;5026904;28;46729;-78
2023/05/29 09:16:02;;;;;;;12.23;4.90;;;22.20;9.40;;;;;;5026266;28;47488;-79
2023/05/29 09:18:32;;;;;;;12.93;5.47;;;22.20;8.90;;;;;;5011215;28;46433;-80
2023/05/29 09:20:58;;;;;;;8.23;4.23;;;22.20;8.60;;;;;;5027212;28;46365;-80
2023/05/29 09:23:26;;;;;;;10.40;4.47;;;22.20;8.40;;;;;;5031183;28;46429;-81
2023/05/29 09:25:53;;;;;;;13.43;5.73;;;22.20;7.60;;;;;;5023749;28;47981;-82
2023/05/29 09:28:21;;;;;;;8.93;4.00;;;22.30;8.00;;;;;;5024606;28;46450;-81
2023/05/29 09:30:47;;;;;;;8.60;4.80;;;22.40;8.00;;;;;;5034730;28;46473;-80
2023/05/29 09:33:14;;;;;;;15.67;4.80;;;22.40;8.40;;;;;;5036527;28;46544;-81
2023/05/29 09:35:41;;;;;;;10.90;4.17;;;22.70;8.10;;;;;;5034163;28;47535;-81
2023/05/29 09:38:08;;;;;;;10.33;4.70;;;22.70;7.80;;;;;;5026229;28;46556;-82
2023/05/29 09:40:36;;;;;;;9.40;4.93;;;22.80;7.50;;;;;;5036299;28;46369;-82
2023/05/29 09:43:17;;;;;;;10.33;4.50;;;22.50;7.30;;;;;;5037561;28;46439;-84
2023/05/29 09:45:44;;;;;;;13.00;4.60;;;22.50;6.90;;;;;;5019947;28;49125;-83
2023/05/29 09:48:14;;;;;;;10.40;5.37;;;22.40;7.00;;;;;;5032570;28;46226;-80
2023/05/29 09:50:44;;;;;;;16.50;5.90;;;22.70;5.90;;;;;;5036243;28;46407;-81
2023/05/29 09:53:24;;;;;;;7.17;4.30;;;22.70;6.80;;;;;;5024220;28;46496;-79
2023/05/29 09:55:50;;;;;;;12.93;4.97;;;22.80;7.10;;;;;;5033700;28;46539;-79
2023/05/29 09:58:20;;;;;;;8.93;4.10;;;22.80;6.40;;;;;;5035835;28;46348;-78
2023/05/29 10:00:48;;;;;;;7.50;4.60;;;22.90;6.30;;;;;;5035335;28;46685;-79
2023/05/29 10:03:14;;;;;;;9.13;4.20;;;22.90;5.60;;;;;;5031976;28;46911;-79
2023/05/29 10:05:40;;;;;;;19.60;4.93;;;22.90;5.30;;;;;;5034579;28;46362;-80
2023/05/29 10:08:13;;;;;;;10.63;4.63;;;22.90;5.20;;;;;;5029463;28;46389;-80
2023/05/29 10:10:43;;;;;;;9.80;4.50;;;22.80;4.20;;;;;;5015543;28;47101;-78
2023/05/29 10:13:11;;;;;;;8.30;4.27;;;22.90;4.50;;;;;;5013675;28;46339;-79
2023/05/29 10:15:39;;;;;;;6.60;3.90;;;23.00;4.50;;;;;;5034097;28;46423;-80
2023/05/29 10:18:23;;;;;;;10.23;4.70;;;22.80;4.50;;;;;;5034526;28;45780;-80
2023/05/29 10:20:55;;;;;;;11.90;5.17;;;22.70;4.60;;;;;;5028361;28;46632;-82
2023/05/29 10:23:23;;;;;;;9.23;4.50;;;22.60;3.10;;;;;;5037284;28;46453;-79
2023/05/29 10:25:56;;;;;;;12.67;4.73;;;22.50;3.10;;;;;;5031201;28;46464;-78
2023/05/29 10:28:23;;;;;;;11.43;5.00;;;22.60;3.70;;;;;;5031367;28;46498;-78
2023/05/29 10:31:04;;;;;;;12.27;5.10;;;22.70;4.20;;;;;;5034828;28;46388;-78
2023/05/29 10:33:45;;;;;;;8.60;4.60;;;22.80;4.00;;;;;;5033600;28;46416;-80
2023/05/29 10:36:18;;;;;;;13.50;4.67;;;23.00;4.40;;;;;;5032531;28;46695;-78
2023/05/29 10:38:45;;;;;;;7.93;4.20;;;23.10;3.70;;;;;;5033660;28;46730;-77
2023/05/29 10:41:26;;;;;;;9.87;4.83;;;23.20;3.20;;;;;;5013028;28;46428;-78
2023/05/29 10:43:57;;;;;;;9.97;4.40;;;23.20;2.90;;;;;;5031357;28;46492;-78
2023/05/29 10:46:42;;;;;;;13.43;5.00;;;23.00;3.40;;;;;;5014250;28;46405;-78
2023/05/29 10:49:19;;;;;;;8.40;4.60;;;22.90;3.30;;;;;;5030413;28;46364;-79
2023/05/29 10:51:45;;;;;;;10.80;5.00;;;22.80;3.60;;;;;;5030383;28;46400;-79
2023/05/29 10:54:11;;;;;;;7.63;3.90;;;22.80;3.30;;;;;;5029357;28;46456;-78
2023/05/29 10:56:37;;;;;;;9.00;4.73;;;22.80;3.30;;;;;;5029815;28;46900;-79
2023/05/29 10:59:03;;;;;;;8.37;4.80;;;23.00;3.40;;;;;;5026795;28;46416;-77
2023/05/29 11:01:30;;;;;;;8.53;4.60;;;23.10;3.40;;;;;;5029433;28;46602;-79
2023/05/29 11:04:17;;;;;;;10.93;4.60;;;23.20;3.30;;;;;;5029730;28;46422;-80
2023/05/29 11:06:44;;;;;;;9.97;4.50;;;23.20;3.10;;;;;;5030005;28;47145;-79
2023/05/29 11:09:29;;;;;;;10.23;4.63;;;23.40;3.10;;;;;;5030623;28;46388;-77
2023/05/29 11:12:33;;;;;;;8.10;3.80;;;23.30;2.70;;;;;;5032589;28;45768;-78
2023/05/29 11:15:04;;;;;;;11.27;5.00;;;23.30;2.40;;;;;;5028331;28;46717;-78
2023/05/29 11:17:31;;;;;;;9.20;4.10;;;23.30;2.20;;;;;;5029128;28;46393;-79
2023/05/29 11:19:57;;;;;;;8.50;4.30;;;23.40;2.30;;;;;;5033642;28;46394;-80
2023/05/29 11:22:41;;;;;;;8.63;4.70;;;23.40;2.30;;;;;;5021808;28;46440;-77
2023/05/29 11:25:07;;;;;;;18.27;4.60;;;23.30;2.20;;;;;;5010271;28;46475;-79
2023/05/29 11:27:34;;;;;;;7.80;4.40;;;23.10;2.10;;;;;;5030006;28;46338;-80
2023/05/29 11:30:00;;;;;;;16.67;4.17;;;23.10;2.10;;;;;;5032530;28;46529;-77
2023/05/29 11:32:30;;;;;;;8.77;4.53;;;23.10;2.10;;;;;;5029104;28;46477;-78
2023/05/29 11:34:59;;;;;;;8.27;4.27;;;23.20;2.20;;;;;;5030261;28;46367;-77
2023/05/29 11:37:25;;;;;;;9.53;4.57;;;23.30;2.20;;;;;;5022978;28;49334;-81
2023/05/29 11:39:51;;;;;;;9.33;5.10;;;23.30;2.20;;;;;;5015480;28;46401;-79
2023/05/29 11:42:17;;;;;;;10.57;4.73;;;23.60;2.50;;;;;;5028804;28;46606;-79
2023/05/29 11:44:42;;;;;;;6.40;3.73;;;23.60;1.60;;;;;;5027566;28;46542;-78
2023/05/29 11:47:08;;;;;;;7.93;3.83;;;23.80;1.00;;;;;;5024370;28;48488;-78
2023/05/29 11:49:36;;;;;;;12.03;4.47;;;23.80;1.00;;;;;;5030736;28;46293;-78
2023/05/29 11:52:12;;;;;;;10.30;4.40;;;23.70;1.00;;;;;;5033402;28;46479;-81
2023/05/29 11:54:37;;;;;;;7.13;3.93;;;23.70;1.20;;;;;;5011807;28;46576;-80
2023/05/29 11:57:05;;;;;;;7.13;3.90;;;23.80;1.50;;;;;;5022162;28;48101;-80
2023/05/29 11:59:34;;;;;;;9.47;4.03;;;23.40;1.00;;;;;;5025856;28;46670;-76
2023/05/29 12:02:03;;;;;;;13.00;4.03;;;23.40;1.30;;;;;;5029972;28;46779;-75
2023/05/29 12:04:28;;;;;;;9.70;4.97;;;23.30;1.60;;;;;;5015477;28;46440;-79
2023/05/29 12:06:54;;;;;;;9.30;4.70;;;23.30;1.10;;;;;;5033829;28;47430;-82
2023/05/29 12:09:28;;;;;;;8.00;4.13;;;23.50;1.00;;;;;;5011997;28;46488;-79
2023/05/29 12:12:01;;;;;;;8.50;4.67;;;23.50;1.00;;;;;;5012990;28;46445;-78
2023/05/29 12:14:26;;;;;;;7.37;3.70;;;23.50;1.40;;;;;;5016286;28;45932;-78
2023/05/29 12:16:52;;;;;;;5.23;3.03;;;23.70;1.20;;;;;;5029674;28;47444;-79
2023/05/29 12:19:18;;;;;;;6.90;3.87;;;23.90;1.00;;;;;;5030329;28;46485;-79
2023/05/29 12:21:44;;;;;;;13.77;4.17;;;23.80;1.00;;;;;;5031106;28;46404;-81
2023/05/29 12:24:10;;;;;;;9.57;3.93;;;23.70;1.00;;;;;;5031184;28;46487;-79
2023/05/29 12:26:36;;;;;;;8.13;4.33;;;23.70;1.00;;;;;;5029487;28;47487;-81
2023/05/29 12:29:05;;;;;;;7.27;3.53;;;23.90;1.00;;;;;;5013368;28;46561;-80
2023/05/29 12:31:31;;;;;;;7.23;3.67;;;23.80;1.00;;;;;;5031271;28;46681;-83
2023/05/29 12:34:09;;;;;;;7.67;4.10;;;23.80;1.00;;;;;;5019407;28;46539;-80
2023/05/29 12:36:35;;;;;;;8.93;4.07;;;23.70;1.00;;;;;;5013502;28;48094;-81
2023/05/29 12:39:08;;;;;;;10.63;4.30;;;23.80;1.00;;;;;;5031068;28;46460;-82
2023/05/29 12:41:35;;;;;;;7.53;3.80;;;23.80;1.00;;;;;;5030797;28;46511;-80
2023/05/29 12:44:03;;;;;;;7.50;3.80;;;24.00;1.00;;;;;;5031026;28;46442;-80
2023/05/29 12:46:40;;;;;;;9.60;4.10;;;24.00;1.00;;;;;;5021092;28;47319;-80